createdAt,value
2023-03-05T00:00:55.753Z,78.97
2023-03-05T00:05:58.284Z,79.26
2023-03-05T00:11:08.617Z,79.23
2023-03-05T00:16:13.009Z,79.48
2023-03-05T00:21:29.727Z,79.62
2023-03-05T00:26:34.703Z,79.11
2023-03-05T00:31:37.375Z,79.43
2023-03-05T00:36:41.644Z,79.28
2023-03-05T00:41:44.713Z,79.24
2023-03-05T00:46:47.799Z,78.99
2023-03-05T00:51:50.338Z,79.05
2023-03-05T00:56:52.570Z,78.58
2023-03-05T01:01:54.836Z,78.59
2023-03-05T01:06:57.177Z,78.69
2023-03-05T01:12:00.356Z,78.66
2023-03-05T01:17:02.943Z,78.81
2023-03-05T01:22:06.760Z,78.47
2023-03-05T01:27:10.016Z,78.63
2023-03-05T01:32:12.286Z,78.97
2023-03-05T01:37:14.683Z,78.96
2023-03-05T01:42:16.881Z,79.23
2023-03-05T01:47:19.064Z,79.08
2023-03-05T01:52:22.639Z,79.05
2023-03-05T01:57:35.128Z,79.16
2023-03-05T02:02:37.328Z,79.18
2023-03-05T02:07:42.928Z,79.08
2023-03-05T02:12:45.373Z,79.53
2023-03-05T02:18:08.346Z,79.47
2023-03-05T02:23:10.514Z,79.35
2023-03-05T02:28:16.973Z,79.76
2023-03-05T02:33:19.994Z,79.45
2023-03-05T02:38:23.143Z,79.59
2023-03-05T02:43:25.400Z,79.10
2023-03-05T02:48:28.544Z,79.47
2023-03-05T02:53:30.813Z,79.84
2023-03-05T02:58:33.186Z,79.67
2023-03-05T03:03:35.517Z,79.58
2023-03-05T03:08:37.785Z,79.58
2023-03-05T03:13:40.605Z,79.85
2023-03-05T03:18:44.597Z,79.57
2023-03-05T03:23:46.809Z,79.41
2023-03-05T03:28:49.032Z,79.54
2023-03-05T03:33:51.166Z,79.59
2023-03-05T03:38:53.330Z,79.46
2023-03-05T03:43:55.501Z,79.87
2023-03-05T03:48:57.651Z,79.40
2023-03-05T03:54:00.273Z,79.80
2023-03-05T03:59:02.686Z,79.60
2023-03-05T04:04:05.863Z,79.73
2023-03-05T04:09:08.527Z,79.66
2023-03-05T04:14:10.648Z,79.11
2023-03-05T04:19:12.959Z,79.44
2023-03-05T04:24:15.378Z,79.27
2023-03-05T04:29:17.626Z,79.56
2023-03-05T04:34:19.730Z,79.50
2023-03-05T04:39:24.576Z,79.04
2023-03-05T04:44:26.747Z,79.34
2023-03-05T04:49:29.725Z,79.54
2023-03-05T04:54:31.935Z,79.49
2023-03-05T04:59:34.092Z,79.76
2023-03-05T05:04:36.568Z,79.33
2023-03-05T05:09:40.240Z,78.84
2023-03-05T05:14:42.334Z,79.28
2023-03-05T05:19:45.196Z,79.21
2023-03-05T05:24:47.385Z,79.04
2023-03-05T05:29:53.284Z,79.09
2023-03-05T05:34:56.984Z,79.15
2023-03-05T05:39:59.389Z,78.68
2023-03-05T05:45:03.310Z,79.16
2023-03-05T05:50:08.123Z,79.05
2023-03-05T05:55:12.652Z,79.08
2023-03-05T06:00:16.054Z,78.89
2023-03-05T06:05:18.305Z,78.97
2023-03-05T06:10:21.218Z,79.39
2023-03-05T06:15:32.159Z,78.94
2023-03-05T06:21:08.219Z,79.09
2023-03-05T06:26:12.377Z,78.41
2023-03-05T06:31:19.937Z,79.37
2023-03-05T06:36:24.828Z,79.59
2023-03-05T06:41:29.663Z,79.55
2023-03-05T06:46:34.651Z,79.37
2023-03-05T06:51:39.149Z,79.45
2023-03-05T06:56:44.210Z,79.90
2023-03-05T07:01:46.393Z,79.02
2023-03-05T07:06:48.676Z,79.30
2023-03-05T07:11:50.996Z,79.38
2023-03-05T07:16:53.321Z,79.63
2023-03-05T07:21:55.707Z,79.58
2023-03-05T07:26:58.021Z,79.23
2023-03-05T07:32:01.318Z,79.62
2023-03-05T07:37:04.845Z,79.87
2023-03-05T07:42:09.626Z,79.76
2023-03-05T07:47:27.175Z,79.67
2023-03-05T07:52:29.739Z,79.99
2023-03-05T07:57:32.186Z,79.58
2023-03-05T08:02:34.464Z,79.30
2023-03-05T08:07:36.732Z,79.58
2023-03-05T08:12:39.176Z,79.74
2023-03-05T08:17:41.406Z,79.44
2023-03-05T08:22:43.616Z,79.52
2023-03-05T08:27:47.781Z,79.39
2023-03-05T08:32:50.595Z,79.33
2023-03-05T08:37:53.097Z,79.14
2023-03-05T08:42:55.324Z,79.20
2023-03-05T08:47:58.279Z,79.36
2023-03-05T08:53:00.446Z,79.16
2023-03-05T08:58:03.433Z,79.16
2023-03-05T09:03:05.905Z,78.75
2023-03-05T09:08:09.983Z,78.79
2023-03-05T09:13:12.879Z,78.59
2023-03-05T09:18:15.072Z,78.87
2023-03-05T09:23:17.321Z,78.61
2023-03-05T09:28:19.573Z,78.22
2023-03-05T09:33:21.797Z,78.08
2023-03-05T09:38:24.000Z,77.93
2023-03-05T09:43:29.935Z,78.38
2023-03-05T09:48:41.080Z,78.11
2023-03-05T09:54:02.913Z,78.03
2023-03-05T09:59:33.944Z,78.19
2023-03-05T10:05:06.858Z,78.21
2023-03-05T10:10:18.780Z,78.24
2023-03-05T10:15:36.556Z,78.28
2023-03-05T10:20:42.509Z,78.28
2023-03-05T10:26:06.095Z,78.03
2023-03-05T10:31:14.672Z,77.50
2023-03-05T10:36:28.918Z,77.80
2023-03-05T10:41:34.055Z,77.94
2023-03-05T10:46:38.149Z,77.36
2023-03-05T10:51:48.131Z,77.41
2023-03-05T10:57:17.925Z,77.60
2023-03-05T11:02:22.393Z,77.36
2023-03-05T11:07:24.630Z,77.10
2023-03-05T11:12:28.729Z,76.40
2023-03-05T11:17:45.539Z,76.51
2023-03-05T11:23:25.432Z,76.13
2023-03-05T11:28:51.017Z,76.52
2023-03-05T11:34:00.157Z,76.42
2023-03-05T11:39:08.323Z,76.65
2023-03-05T11:44:16.578Z,76.50
2023-03-05T11:49:24.844Z,76.55
2023-03-05T11:54:34.242Z,76.32
2023-03-05T11:59:40.367Z,76.52
2023-03-05T12:04:42.666Z,76.36
2023-03-05T12:09:48.012Z,76.45
2023-03-05T12:15:17.878Z,76.35
2023-03-05T12:20:47.965Z,76.64
2023-03-05T12:25:53.458Z,76.57
2023-03-05T12:31:17.414Z,76.20
2023-03-05T12:36:22.528Z,76.26
2023-03-05T12:41:27.479Z,76.27
2023-03-05T12:46:30.309Z,76.16
2023-03-05T12:51:38.122Z,75.83
2023-03-05T12:56:45.324Z,75.59
2023-03-05T13:02:03.748Z,75.97
2023-03-05T13:07:12.965Z,75.80
2023-03-05T13:12:15.510Z,75.63
2023-03-05T13:17:39.370Z,75.56
2023-03-05T13:22:46.712Z,75.86
2023-03-05T13:27:49.036Z,75.90
2023-03-05T13:32:53.439Z,75.81
2023-03-05T13:37:56.678Z,76.03
2023-03-05T13:43:13.862Z,75.53
2023-03-05T13:48:20.419Z,75.70
2023-03-05T13:53:32.259Z,75.16
2023-03-05T13:58:53.913Z,75.02
2023-03-05T14:04:03.967Z,75.11
2023-03-05T14:09:20.389Z,74.68
2023-03-05T14:14:23.956Z,74.50
2023-03-05T14:19:39.025Z,75.05
2023-03-05T14:24:52.783Z,75.06
2023-03-05T14:29:55.266Z,74.71
2023-03-05T14:34:59.807Z,75.29
2023-03-05T14:40:08.101Z,74.93
2023-03-05T14:45:15.418Z,74.74
2023-03-05T14:50:26.330Z,74.67
2023-03-05T14:55:32.103Z,74.44
2023-03-05T15:00:34.587Z,74.97
2023-03-05T15:05:37.669Z,74.71
2023-03-05T15:10:40.079Z,74.31
2023-03-05T15:15:43.420Z,74.51
2023-03-05T15:20:47.063Z,74.95
2023-03-05T15:25:56.192Z,74.56
2023-03-05T15:31:08.463Z,74.68
2023-03-05T15:36:50.559Z,74.97
2023-03-05T15:42:00.964Z,75.06
2023-03-05T15:47:06.585Z,75.01
2023-03-05T15:52:18.196Z,74.67
2023-03-05T15:57:24.389Z,74.64
2023-03-05T16:02:26.873Z,74.57
2023-03-05T16:20:49.765Z,74.75
2023-03-05T16:54:07.425Z,75.09
2023-03-05T16:59:13.125Z,75.14
2023-03-05T17:16:02.070Z,75.54
2023-03-05T17:21:07.833Z,75.22
2023-03-05T17:26:18.642Z,75.44
2023-03-05T17:31:35.353Z,75.17
2023-03-05T17:36:43.304Z,75.31
2023-03-05T17:41:48.119Z,75.23
2023-03-05T17:46:50.793Z,75.60
2023-03-05T17:51:54.677Z,75.12
2023-03-05T17:57:00.318Z,75.31
2023-03-05T18:02:06.084Z,75.68
2023-03-05T18:07:17.020Z,75.83
2023-03-05T18:12:30.056Z,75.76
2023-03-05T18:17:35.248Z,75.75
2023-03-05T18:22:40.246Z,75.77
2023-03-05T18:28:15.318Z,76.08
2023-03-05T18:33:23.215Z,76.08
2023-03-05T18:38:29.364Z,76.10
2023-03-05T18:43:35.075Z,75.88
2023-03-05T18:48:38.500Z,75.87
2023-03-05T18:53:46.285Z,76.03
2023-03-05T18:58:50.290Z,76.02
2023-03-05T19:03:57.601Z,75.95
2023-03-05T19:09:48.718Z,76.07
2023-03-05T19:14:54.287Z,76.12
2023-03-05T19:20:00.813Z,76.46
2023-03-05T19:25:04.024Z,76.23
2023-03-05T19:30:10.434Z,76.33
2023-03-05T19:35:19.925Z,76.77
2023-03-05T19:40:26.843Z,76.62
2023-03-05T19:45:34.790Z,76.67
2023-03-05T19:56:07.632Z,76.90
2023-03-05T20:01:23.366Z,77.37
2023-03-05T20:06:30.733Z,77.37
2023-03-05T20:11:35.414Z,77.37
2023-03-05T20:16:38.890Z,77.33
2023-03-05T20:21:42.764Z,77.29
2023-03-05T20:26:48.015Z,77.46
2023-03-05T20:31:53.841Z,77.22
2023-03-05T20:36:58.728Z,77.29
2023-03-05T20:42:02.166Z,77.05
2023-03-05T20:47:45.063Z,77.33
2023-03-05T20:52:48.608Z,76.88
2023-03-05T20:57:51.187Z,77.03
2023-03-05T21:02:57.186Z,77.39
2023-03-05T21:08:02.662Z,77.06
2023-03-05T21:13:07.385Z,77.41
2023-03-05T21:18:10.981Z,77.25
2023-03-05T21:23:14.750Z,77.63
2023-03-05T21:28:18.075Z,77.47
2023-03-05T21:33:30.053Z,77.70
2023-03-05T21:38:35.049Z,77.55
2023-03-05T21:43:39.512Z,77.64
2023-03-05T21:48:41.923Z,77.73
2023-03-05T21:53:46.955Z,77.77
2023-03-05T21:58:54.888Z,77.72
2023-03-05T22:03:57.554Z,77.70
2023-03-05T22:09:01.513Z,78.06
2023-03-05T22:14:06.160Z,77.58
2023-03-05T22:19:10.732Z,77.76
2023-03-05T22:24:19.055Z,77.83
2023-03-05T22:29:22.738Z,77.82
2023-03-05T22:34:25.939Z,77.82
2023-03-05T22:39:29.468Z,78.17
2023-03-05T22:44:33.720Z,77.95
2023-03-05T22:49:38.460Z,77.72
2023-03-05T22:54:41.103Z,77.69
2023-03-05T22:59:45.106Z,77.57
2023-03-05T23:04:55.064Z,78.13
2023-03-05T23:10:06.914Z,77.69
2023-03-05T23:15:15.294Z,77.86
2023-03-05T23:20:21.162Z,78.21
2023-03-05T23:25:26.897Z,78.20
2023-03-05T23:30:33.440Z,78.13
2023-03-05T23:35:41.680Z,78.12
2023-03-05T23:40:49.460Z,78.23
2023-03-05T23:46:02.525Z,78.62
2023-03-05T23:51:10.035Z,78.46
2023-03-05T23:56:15.828Z,78.45
